Skip Navigation Links
NOAA logo - Click to go to the NOAA homepage
NOAA's National Weather Service
Alaska Aviation Weather Unit
  NWS logo - Click to go to the NWS homepage
Left Navbar Graphic     22 AKDT = 06 GMT

   
NOAA is celebrating 200 years of science, service, and stewardship. Visit the NOAA 200th celebration Web site to learn more.
USA.gov is the U.S. Government's official Web portal to all Federal, state and local government Web resources and services.
Facebook
NWS on Facebook

Important Change Regarding the AAWU Web Presence

 

Over the last several months, the AAWU has been working to navigate its webpages to a nationally supported server. Security, as well as other needs, have necessitated the change.  We have been given an extension for the site changeover while we diligently work at addressing feedback received. As of July 14, 2017, aawu.arh.noaa.gov will be discontinued. The new AAWU web address is weather.gov/aawu. It is now live and will run in-parallel with the old site until it is discontinued on July 14, 2017. Please continue to send any feedback or questions regarding the new webpages to nws.ar.aawu.webauthors@noaa.gov.  Thank you for your patience during this time of transition.
AAWU Home :: Display TAF Add Bookmark
TAF PAOT 260534Z 2606/2706 VRB06KT P6SM FEW004 SCT015
     FM260900 32008KT P6SM VCSH BKN007 OVC015
     FM261800 32008KT P6SM SCT015 BKN050 BKN200=

PAOT 260000Z 00000KT R09/4000VP6000FT -RA FEW005 BKN009 OVC016 13/13 A2985= PAOT 260000Z 00000KT R09/4000VP6000FT -RA FEW005 BKN009 OVC016 13/13 A2985 RMK AO2 P0000 T01330128 $= PAOT 260003Z 00000KT 6SM R09/4000VP6000FT -RA BR BKN004 OVC007 13/13 A2984= PAOT 260003Z 00000KT 6SM R09/4000VP6000FT -RA BR BKN004 OVC007 13/13 A2984 RMK AO2 P0001 T01330128 $= PAOT 260048Z 31003KT 2SM BR SCT003 BKN012 OVC018 13/13 A2984= PAOT 260048Z 31003KT 2SM BR SCT003 BKN012 OVC018 13/13 A2984 RMK AO2 RAE37 P0002 $= METAR PAOT 260053Z 00000KT 2SM R09/5500VP6000FT -RA BR SCT003 BKN012 OVC018 13/13 A2984= PAOT 260139Z 29003KT 3SM -RA BR SCT005 BKN012 OVC027 13/13 A2984= SPECI PAOT 260139Z 29003KT 3SM -RA BR SCT005 BKN012 OVC027 13/13 A2984 RMK AO2 P0006 T01330128 $= PAOT 260150Z 32003KT 2SM R09/5500VP6000FT -RA BR BKN004 BKN012 OVC027 13/13 A2984= SPECI PAOT 260150Z 32003KT 2SM R09/5500VP6000FT -RA BR BKN004 BKN012 OVC027 13/13 A2984 RMK AO2 P0008 $= METAR PAOT 260153Z 31004KT 2SM R09/5500VP6000FT -RA BR BKN004 BKN012 OVC027 13/13 A2984= PAOT 260229Z 28003KT 5SM BR SCT004 BKN011 OVC031 14/13 A2984= SPECI PAOT 260229Z 28003KT 5SM BR SCT004 BKN011 OVC031 14/13 A2984 RMK AO2 RAE17 P0001 T01390128 $= METAR PAOT 260253Z 28003KT 10SM FEW004 BKN060 BKN075 14/13 A2984= METAR PAOT 260353Z 30004KT 10SM FEW004 BKN075 BKN110 15/13 A2984= METAR PAOT 260453Z 32007KT 10SM BKN050 OVC065 14/13 A2984= METAR PAOT 260553Z 33007KT 10SM FEW031 BKN055 OVC110 15/13 A2984=
 Alaska TAF Map

NOAA's National Weather Service
Alaska Aviation Weather Unit
6930 Sand Lake Road
Anchorage, AK 99502-1845
Disclaimer
Credits
Glossary
Privacy Policy
About Us
Career Opportunities
Contact AAWU Internet Services Site last modified: April, 17th 2012